Time;durP1;ratioP1;P1;durP2;ratioP2;P2;SDS_P1;SDS_P2;PMS_P1;PMS_P2;Temp;Humidity;BMP_temperature;BMP_pressure;BME280_temperature;BME280_humidity;BME280_pressure;Samples;Min_cycle;Max_cycle;Signal;HPM_P1;HPM_P2
2022/06/05 00:01:15;;;;;;;15.32;9.55;;;12.20;99.90;;;;;;5090992;28;20039;-30
2022/06/05 00:03:43;;;;;;;14.82;10.48;;;12.10;99.90;;;;;;5092279;28;20561;-30
2022/06/05 00:06:21;;;;;;;11.77;9.45;;;12.10;99.90;;;;;;5092440;28;20040;-27
2022/06/05 00:08:53;;;;;;;14.52;9.35;;;12.10;99.90;;;;;;5093500;28;20371;-28
2022/06/05 00:11:20;;;;;;;14.40;10.35;;;12.10;99.90;;;;;;5087964;28;20501;-30
2022/06/05 00:13:52;;;;;;;16.13;9.70;;;12.10;99.90;;;;;;5074075;28;20069;-34
2022/06/05 00:16:22;;;;;;;11.07;9.77;;;12.10;99.90;;;;;;5092630;28;20036;-32
2022/06/05 00:18:48;;;;;;;15.43;10.70;;;12.10;99.90;;;;;;5092159;28;20074;-31
2022/06/05 00:21:14;;;;;;;15.65;11.38;;;12.10;99.90;;;;;;5090117;28;20040;-32
2022/06/05 00:23:41;;;;;;;15.18;10.93;;;12.10;99.90;;;;;;5071394;28;20103;-32
2022/06/05 00:26:36;;;;;;;15.52;11.07;;;12.00;99.90;;;;;;5056941;28;20048;-34
2022/06/05 00:29:22;;;;;;;15.02;10.38;;;12.00;99.90;;;;;;5088049;28;20044;-32
2022/06/05 00:32:10;;;;;;;17.70;11.50;;;12.00;99.90;;;;;;5083357;28;20039;-32
2022/06/05 00:34:36;;;;;;;16.25;10.32;;;12.00;99.90;;;;;;5086326;28;20040;-30
2022/06/05 00:37:15;;;;;;;13.80;10.60;;;11.90;99.90;;;;;;5091991;28;20438;-31
2022/06/05 00:40:23;;;;;;;15.75;11.10;;;12.00;99.90;;;;;;5068599;28;20036;-33
2022/06/05 00:42:49;;;;;;;12.45;10.60;;;12.00;99.90;;;;;;5085873;28;20043;-32
2022/06/05 00:45:16;;;;;;;13.63;10.38;;;12.00;99.90;;;;;;5090613;28;20032;-30
2022/06/05 00:47:43;;;;;;;14.13;10.85;;;11.90;99.90;;;;;;5091443;28;20040;-32
2022/06/05 00:50:19;;;;;;;15.38;11.13;;;12.00;99.90;;;;;;5072792;28;20044;-31
2022/06/05 00:52:48;;;;;;;15.63;11.25;;;11.90;99.90;;;;;;5091703;28;20085;-35
2022/06/05 00:55:16;;;;;;;14.27;10.88;;;11.90;99.90;;;;;;5073691;28;20152;-33
2022/06/05 00:57:42;;;;;;;18.80;12.18;;;11.90;99.90;;;;;;5093269;28;20039;-31
2022/06/05 01:00:27;;;;;;;16.27;12.27;;;11.90;99.90;;;;;;5092056;28;20039;-31
2022/06/05 01:02:55;;;;;;;15.65;11.43;;;11.90;99.90;;;;;;5092316;28;20063;-30
2022/06/05 01:05:23;;;;;;;15.70;12.25;;;11.80;99.90;;;;;;5073226;28;20044;-30
2022/06/05 01:07:49;;;;;;;17.88;12.93;;;11.90;99.90;;;;;;5090564;28;20299;-33
2022/06/05 01:10:17;;;;;;;17.40;11.30;;;11.80;99.90;;;;;;5090684;28;20448;-34
2022/06/05 01:13:17;;;;;;;15.95;11.52;;;11.80;99.90;;;;;;5090828;28;20041;-30
2022/06/05 01:16:19;;;;;;;18.08;12.32;;;11.80;99.90;;;;;;5082765;28;20514;-32
2022/06/05 01:19:09;;;;;;;17.17;10.60;;;11.80;99.90;;;;;;5084496;28;20035;-31
2022/06/05 01:22:18;;;;;;;14.57;11.73;;;11.80;99.90;;;;;;5090663;28;20043;-30
2022/06/05 01:24:49;;;;;;;15.40;11.43;;;11.80;99.90;;;;;;5008252;28;20034;-30
2022/06/05 01:27:22;;;;;;;17.42;11.85;;;11.80;99.90;;;;;;5075084;28;20098;-30
2022/06/05 01:30:00;;;;;;;18.00;11.50;;;11.80;99.90;;;;;;5090434;28;20090;-29
2022/06/05 01:32:36;;;;;;;13.07;11.60;;;11.80;99.90;;;;;;5090854;28;20076;-29
2022/06/05 01:35:17;;;;;;;13.57;11.23;;;11.70;99.90;;;;;;5086936;28;20035;-31
2022/06/05 01:38:02;;;;;;;16.73;13.05;;;11.80;99.90;;;;;;5085353;28;20029;-31
2022/06/05 01:40:45;;;;;;;17.92;12.52;;;11.70;99.90;;;;;;5080039;28;20044;-30
2022/06/05 01:43:21;;;;;;;18.08;11.85;;;11.70;99.90;;;;;;5091156;28;20047;-31
2022/06/05 01:45:53;;;;;;;14.15;11.38;;;11.70;99.90;;;;;;5091475;28;20040;-32
2022/06/05 01:48:25;;;;;;;19.90;11.80;;;11.60;99.90;;;;;;5089627;28;20101;-31
2022/06/05 01:50:58;;;;;;;24.52;12.90;;;11.60;99.90;;;;;;5090867;28;20108;-31
2022/06/05 01:53:33;;;;;;;17.02;12.30;;;11.60;99.90;;;;;;5090920;28;20028;-33
2022/06/05 01:56:25;;;;;;;20.08;12.55;;;11.60;99.90;;;;;;5091056;28;20094;-30
2022/06/05 01:59:00;;;;;;;18.27;12.23;;;11.60;99.90;;;;;;5089095;28;20050;-30
2022/06/05 02:01:32;;;;;;;19.55;13.55;;;11.60;99.90;;;;;;5057308;28;20047;-30
2022/06/05 02:04:04;;;;;;;16.58;11.82;;;11.60;99.90;;;;;;5092630;28;20028;-30
2022/06/05 02:06:35;;;;;;;18.08;13.75;;;11.60;99.90;;;;;;5092067;28;20048;-29
2022/06/05 02:09:09;;;;;;;18.60;12.90;;;11.60;99.90;;;;;;5091842;28;20041;-31
2022/06/05 02:11:35;;;;;;;;;;;11.60;99.90;;;;;;5074725;28;20036;-29
2022/06/05 02:14:07;;;;;;;17.25;11.55;;;11.60;99.90;;;;;;5057019;28;19922;-31
2022/06/05 02:16:36;;;;;;;21.88;13.65;;;11.60;99.90;;;;;;5091972;28;20518;-30
2022/06/05 02:19:06;;;;;;;21.27;13.80;;;11.60;99.90;;;;;;5091647;28;20032;-29
2022/06/05 02:21:33;;;;;;;19.08;13.00;;;11.60;99.90;;;;;;5092099;28;20051;-29
2022/06/05 02:23:59;;;;;;;22.13;13.85;;;11.60;99.90;;;;;;5091696;28;20530;-29
2022/06/05 02:26:27;;;;;;;18.50;13.60;;;11.60;99.90;;;;;;5091839;28;20036;-30
2022/06/05 02:28:53;;;;;;;18.85;13.30;;;11.60;99.90;;;;;;5094010;28;20135;-28
2022/06/05 02:31:47;;;;;;;21.85;13.65;;;11.60;99.90;;;;;;5095623;28;20040;-29
2022/06/05 02:34:37;;;;;;;18.20;13.50;;;11.60;99.90;;;;;;5095921;28;20042;-29
2022/06/05 02:37:23;;;;;;;20.27;13.70;;;11.60;99.90;;;;;;5095665;28;20085;-29
2022/06/05 02:40:19;;;;;;;20.10;14.77;;;11.60;99.90;;;;;;5095279;28;20055;-29
2022/06/05 02:42:57;;;;;;;26.58;15.43;;;11.60;99.90;;;;;;5096052;28;20483;-29
2022/06/05 02:45:49;;;;;;;21.73;13.32;;;11.60;99.90;;;;;;5095971;28;20050;-30
2022/06/05 02:48:25;;;;;;;23.60;14.73;;;11.60;99.90;;;;;;5078547;28;20059;-29
2022/06/05 02:51:00;;;;;;;21.02;13.68;;;11.60;99.90;;;;;;5077088;28;20052;-29
2022/06/05 02:53:26;;;;;;;26.25;14.40;;;11.60;99.90;;;;;;5095113;28;20048;-29
2022/06/05 02:55:52;;;;;;;23.23;14.88;;;11.60;99.90;;;;;;5076866;28;20036;-28
2022/06/05 02:58:18;;;;;;;22.60;13.45;;;11.60;99.90;;;;;;5095294;28;20036;-28
2022/06/05 03:03:28;;;;;;;20.73;14.13;;;11.60;99.90;;;;;;5094925;28;20052;-28
2022/06/05 03:05:54;;;;;;;23.08;14.40;;;11.60;99.90;;;;;;5095159;28;20124;-30
2022/06/05 03:08:20;;;;;;;21.20;14.05;;;11.60;99.90;;;;;;5095102;28;20047;-29
2022/06/05 03:10:46;;;;;;;20.75;14.93;;;11.60;99.90;;;;;;5077283;28;20036;-29
2022/06/05 03:13:13;;;;;;;20.55;14.40;;;11.60;99.90;;;;;;5095481;28;20101;-29
2022/06/05 03:15:41;;;;;;;22.00;14.85;;;11.60;99.90;;;;;;5095259;28;20430;-29
2022/06/05 03:18:07;;;;;;;21.80;14.13;;;11.70;99.90;;;;;;5094876;28;20059;-29
2022/06/05 03:20:34;;;;;;;21.73;14.15;;;11.70;99.90;;;;;;5094537;28;20043;-30
2022/06/05 03:23:00;;;;;;;24.00;14.93;;;11.70;99.90;;;;;;5094706;28;20071;-30
2022/06/05 03:25:26;;;;;;;21.08;14.38;;;11.70;99.90;;;;;;5094616;28;20046;-29
2022/06/05 03:27:53;;;;;;;22.30;15.25;;;11.70;99.90;;;;;;5094397;28;20032;-29
2022/06/05 03:30:20;;;;;;;21.52;13.80;;;11.70;99.90;;;;;;5094485;28;20226;-28
2022/06/05 03:32:46;;;;;;;21.55;14.35;;;11.70;99.90;;;;;;5094481;28;20115;-29
2022/06/05 03:35:13;;;;;;;22.58;14.50;;;11.70;99.90;;;;;;5094197;28;20118;-30
2022/06/05 03:37:39;;;;;;;23.48;14.75;;;11.70;99.90;;;;;;5094682;28;20128;-29
2022/06/05 03:40:14;;;;;;;25.98;15.48;;;11.70;99.90;;;;;;5093876;28;20506;-29
2022/06/05 03:42:41;;;;;;;21.83;15.48;;;11.70;99.90;;;;;;5094450;28;20086;-29
2022/06/05 03:45:13;;;;;;;19.30;13.25;;;11.70;99.90;;;;;;5094281;28;20048;-29
2022/06/05 03:47:39;;;;;;;20.00;14.43;;;11.80;99.90;;;;;;5093994;28;20433;-29
2022/06/05 03:50:06;;;;;;;21.92;14.43;;;11.80;99.90;;;;;;5093801;28;20036;-29
2022/06/05 03:52:32;;;;;;;20.15;14.23;;;11.80;99.90;;;;;;5094164;28;20040;-28
2022/06/05 03:54:58;;;;;;;22.08;15.13;;;11.80;99.90;;;;;;5094111;28;20072;-28
2022/06/05 03:57:24;;;;;;;21.42;14.63;;;11.90;99.90;;;;;;5075569;28;20471;-28
2022/06/05 03:59:50;;;;;;;19.98;14.57;;;11.90;99.90;;;;;;5093541;28;20044;-29
2022/06/05 04:02:15;;;;;;;21.08;14.07;;;11.90;99.90;;;;;;5093887;28;20181;-29
2022/06/05 04:04:41;;;;;;;20.48;13.52;;;11.90;99.90;;;;;;5094213;28;20518;-29
2022/06/05 04:07:07;;;;;;;20.25;14.00;;;11.90;99.90;;;;;;5094001;28;20036;-29
2022/06/05 04:09:33;;;;;;;22.60;14.60;;;12.00;99.90;;;;;;5094009;28;20043;-29
2022/06/05 04:11:59;;;;;;;20.05;14.32;;;12.00;99.90;;;;;;5094086;28;20077;-29
2022/06/05 04:14:25;;;;;;;18.80;13.45;;;12.00;99.90;;;;;;5075952;28;20457;-29
2022/06/05 04:16:51;;;;;;;19.05;13.15;;;12.10;99.90;;;;;;5093374;28;20184;-30
2022/06/05 04:19:16;;;;;;;21.40;13.90;;;12.10;99.90;;;;;;5091887;28;20035;-31
2022/06/05 04:21:46;;;;;;;20.73;15.52;;;12.10;99.90;;;;;;5078463;28;20035;-30
2022/06/05 04:24:12;;;;;;;20.25;14.80;;;12.10;99.90;;;;;;5070676;28;20119;-30
2022/06/05 04:26:40;;;;;;;20.70;14.57;;;12.20;99.90;;;;;;5057253;28;20040;-31
2022/06/05 04:29:06;;;;;;;20.92;14.55;;;12.20;99.90;;;;;;5091518;28;20101;-32
2022/06/05 04:31:35;;;;;;;24.58;14.55;;;12.30;99.90;;;;;;5092040;28;20401;-30
2022/06/05 04:34:11;;;;;;;19.98;14.13;;;12.30;99.90;;;;;;5092144;28;20032;-30
2022/06/05 04:36:37;;;;;;;19.88;14.82;;;12.50;99.90;;;;;;5073995;28;20032;-31
2022/06/05 04:39:04;;;;;;;24.23;14.98;;;12.50;99.90;;;;;;5091492;28;20490;-30
2022/06/05 04:41:30;;;;;;;18.95;13.82;;;12.60;99.90;;;;;;5091860;28;20076;-32
2022/06/05 04:43:56;;;;;;;19.58;13.88;;;12.60;99.90;;;;;;5091695;28;20040;-31
2022/06/05 04:46:25;;;;;;;21.98;15.07;;;12.70;99.90;;;;;;5091336;28;20036;-30
2022/06/05 04:48:50;;;;;;;19.52;14.45;;;12.80;99.90;;;;;;5057062;28;20098;-30
2022/06/05 04:51:18;;;;;;;24.75;15.23;;;12.90;99.90;;;;;;5089503;28;20078;-32
2022/06/05 04:53:45;;;;;;;19.88;13.98;;;13.00;99.90;;;;;;5073366;28;20101;-31
2022/06/05 04:56:14;;;;;;;19.25;13.82;;;13.10;99.90;;;;;;5091102;28;20053;-30
2022/06/05 04:58:40;;;;;;;19.13;14.45;;;13.20;99.90;;;;;;5091059;28;20035;-30
2022/06/05 05:01:14;;;;;;;24.48;14.68;;;13.30;99.90;;;;;;5087507;28;20494;-30
2022/06/05 05:03:40;;;;;;;20.58;13.93;;;13.40;99.90;;;;;;5091620;28;20118;-30
2022/06/05 05:06:06;;;;;;;18.08;13.73;;;13.50;99.90;;;;;;5073066;28;20040;-30
2022/06/05 05:08:33;;;;;;;18.02;13.63;;;13.60;99.90;;;;;;5083363;28;20043;-32
2022/06/05 05:10:58;;;;;;;20.10;14.10;;;13.60;99.90;;;;;;5090431;28;20339;-30
2022/06/05 05:13:24;;;;;;;20.90;15.43;;;13.70;99.90;;;;;;5073018;28;20077;-30
2022/06/05 05:15:52;;;;;;;18.08;13.55;;;13.80;99.90;;;;;;5090448;28;20115;-30
2022/06/05 05:18:18;;;;;;;18.00;14.48;;;13.90;99.90;;;;;;5090100;28;20036;-31
2022/06/05 05:20:44;;;;;;;16.02;13.02;;;14.00;99.90;;;;;;5088864;28;20128;-30
2022/06/05 05:23:10;;;;;;;20.92;13.68;;;14.00;99.90;;;;;;5088102;28;20076;-30
2022/06/05 05:25:36;;;;;;;16.55;12.88;;;14.10;99.90;;;;;;5067288;28;20049;-29
2022/06/05 05:28:02;;;;;;;18.45;13.15;;;14.20;99.90;;;;;;5083161;28;20043;-31
2022/06/05 05:30:27;;;;;;;19.90;13.77;;;14.30;99.90;;;;;;5087978;28;20072;-30
2022/06/05 05:32:53;;;;;;;16.25;13.23;;;14.40;99.90;;;;;;5088391;28;20720;-30
2022/06/05 05:35:22;;;;;;;19.77;13.82;;;14.50;99.90;;;;;;5080491;28;20035;-30
2022/06/05 05:37:48;;;;;;;16.58;13.40;;;14.50;99.90;;;;;;5084138;28;20116;-31
2022/06/05 05:42:58;;;;;;;17.73;12.38;;;14.60;99.90;;;;;;5082144;28;20052;-30
2022/06/05 05:45:24;;;;;;;19.10;13.63;;;14.70;99.90;;;;;;5083639;28;20055;-29
2022/06/05 05:47:51;;;;;;;17.02;13.52;;;14.80;99.90;;;;;;5070207;28;21557;-31
2022/06/05 05:50:17;;;;;;;17.75;13.95;;;14.90;99.90;;;;;;5064093;28;20032;-31
2022/06/05 05:52:44;;;;;;;17.02;13.45;;;14.90;99.90;;;;;;5089171;28;20058;-29
2022/06/05 05:55:13;;;;;;;16.48;13.43;;;15.00;99.90;;;;;;5079649;28;20063;-32
2022/06/05 05:57:40;;;;;;;17.17;13.55;;;15.00;99.90;;;;;;5085137;28;20040;-30
2022/06/05 06:00:09;;;;;;;17.10;14.40;;;15.20;99.90;;;;;;5090654;28;20040;-33
2022/06/05 06:02:36;;;;;;;16.75;12.48;;;15.30;99.90;;;;;;5092217;28;20410;-32
2022/06/05 06:05:03;;;;;;;15.38;13.25;;;15.30;99.90;;;;;;5094328;28;20043;-31
2022/06/05 06:07:29;;;;;;;17.55;12.52;;;15.40;99.90;;;;;;5069804;28;20399;-34
2022/06/05 06:09:55;;;;;;;16.33;13.27;;;15.50;99.90;;;;;;5071760;28;20044;-33
2022/06/05 06:12:21;;;;;;;18.77;13.27;;;15.60;99.90;;;;;;5092625;28;20046;-31
2022/06/05 06:14:47;;;;;;;15.77;11.95;;;15.60;99.90;;;;;;5095259;28;20032;-34
2022/06/05 06:17:13;;;;;;;15.23;12.70;;;15.70;99.90;;;;;;5046636;28;20047;-32
2022/06/05 06:19:39;;;;;;;16.05;12.40;;;15.80;99.90;;;;;;5075039;28;20196;-31
2022/06/05 06:22:07;;;;;;;16.42;12.35;;;15.80;99.90;;;;;;5093451;28;20081;-32
2022/06/05 06:24:33;;;;;;;16.20;12.68;;;16.00;99.90;;;;;;5065362;28;20040;-31
2022/06/05 06:26:59;;;;;;;15.38;12.43;;;16.00;99.90;;;;;;5094942;28;20040;-33
2022/06/05 06:29:25;;;;;;;15.18;12.35;;;16.10;99.90;;;;;;5077688;28;20470;-29
2022/06/05 06:31:51;;;;;;;14.68;13.10;;;16.20;99.90;;;;;;5095668;28;20058;-29
2022/06/05 06:34:17;;;;;;;15.20;12.75;;;16.30;99.90;;;;;;5077216;28;20036;-31
2022/06/05 06:36:42;;;;;;;15.05;13.07;;;16.50;99.90;;;;;;5095841;28;20036;-31
2022/06/05 06:39:08;;;;;;;14.85;12.48;;;16.60;99.90;;;;;;5095572;28;20036;-30
2022/06/05 06:41:34;;;;;;;15.40;12.90;;;16.70;99.90;;;;;;5095610;28;20039;-29
2022/06/05 06:44:03;;;;;;;16.45;12.85;;;16.80;99.90;;;;;;5095731;28;20398;-30
2022/06/05 06:46:30;;;;;;;15.02;12.40;;;17.00;99.90;;;;;;5095728;28;20044;-30
2022/06/05 06:48:56;;;;;;;14.05;11.68;;;17.10;99.90;;;;;;5095336;28;20510;-30
2022/06/05 06:51:22;;;;;;;13.57;12.18;;;17.30;99.90;;;;;;5094976;28;20131;-29
2022/06/05 06:53:48;;;;;;;14.65;12.90;;;17.50;99.90;;;;;;5076966;28;20376;-29
2022/06/05 06:56:20;;;;;;;14.95;11.57;;;17.60;99.90;;;;;;5095225;28;20050;-29
2022/06/05 06:58:46;;;;;;;13.18;11.85;;;17.80;99.90;;;;;;5076568;28;20070;-29
2022/06/05 07:01:12;;;;;;;14.10;12.32;;;18.00;99.90;;;;;;5095059;28;20406;-29
2022/06/05 07:03:39;;;;;;;14.27;12.20;;;18.30;99.90;;;;;;5095215;28;20511;-30
2022/06/05 07:06:07;;;;;;;12.60;11.38;;;18.50;99.90;;;;;;5094925;28;20036;-30
2022/06/05 07:08:33;;;;;;;13.70;12.02;;;18.70;99.90;;;;;;5094889;28;20525;-29
2022/06/05 07:11:00;;;;;;;12.93;11.27;;;18.70;99.90;;;;;;5094866;28;20052;-30
2022/06/05 07:13:26;;;;;;;11.90;10.70;;;18.80;99.90;;;;;;5093630;28;20039;-29
2022/06/05 07:15:52;;;;;;;11.68;10.50;;;18.90;99.90;;;;;;5094312;28;20040;-29
2022/06/05 07:18:18;;;;;;;14.52;11.35;;;19.00;99.90;;;;;;5092911;28;20526;-30
2022/06/05 07:20:45;;;;;;;11.30;10.13;;;19.10;99.90;;;;;;5090882;28;20039;-29
2022/06/05 07:23:11;;;;;;;12.23;9.90;;;19.30;99.90;;;;;;5089889;28;20491;-30
2022/06/05 07:25:44;;;;;;;12.13;9.70;;;19.40;99.90;;;;;;5090941;28;20180;-30
2022/06/05 07:28:09;;;;;;;11.90;10.52;;;19.50;99.90;;;;;;5092323;28;20070;-30
2022/06/05 07:30:35;;;;;;;11.80;10.43;;;19.70;99.90;;;;;;5091545;28;20032;-29
2022/06/05 07:33:01;;;;;;;10.85;9.75;;;19.70;99.90;;;;;;5091918;28;20444;-30
2022/06/05 07:35:27;;;;;;;11.32;10.23;;;19.80;99.90;;;;;;5093872;28;20036;-29
2022/06/05 07:37:52;;;;;;;11.30;8.90;;;19.90;99.90;;;;;;5094217;28;20510;-30
2022/06/05 07:40:18;;;;;;;10.25;9.15;;;20.00;99.90;;;;;;5094284;28;20050;-29
2022/06/05 07:42:44;;;;;;;10.00;9.00;;;20.20;99.90;;;;;;5093880;28;20040;-30
2022/06/05 07:45:14;;;;;;;10.27;9.27;;;20.30;99.90;;;;;;5059190;28;20044;-30
2022/06/05 07:47:41;;;;;;;10.50;8.65;;;20.40;99.90;;;;;;5094106;28;20044;-29
2022/06/05 07:50:07;;;;;;;9.82;8.80;;;20.50;99.90;;;;;;5093706;28;20043;-29
2022/06/05 07:55:17;;;;;;;8.85;7.97;;;20.60;99.90;;;;;;5093898;28;20119;-30
2022/06/05 07:57:43;;;;;;;8.68;7.88;;;20.80;99.90;;;;;;5093454;28;20460;-30
2022/06/05 08:00:11;;;;;;;8.82;8.02;;;20.80;99.90;;;;;;5093660;28;20055;-30
2022/06/05 08:02:38;;;;;;;8.52;7.70;;;20.90;99.90;;;;;;5093849;28;20051;-30
2022/06/05 08:05:05;;;;;;;8.20;7.40;;;20.90;99.90;;;;;;5093629;28;20450;-30
2022/06/05 08:07:32;;;;;;;8.27;7.35;;;21.00;99.90;;;;;;5093312;28;20036;-30
2022/06/05 08:10:00;;;;;;;11.32;8.07;;;21.20;99.90;;;;;;5093154;28;20168;-30
2022/06/05 08:12:30;;;;;;;9.90;7.90;;;21.40;99.90;;;;;;5093447;28;20036;-29
2022/06/05 08:14:56;;;;;;;7.38;6.68;;;21.50;99.90;;;;;;5093437;28;20036;-30
2022/06/05 08:17:26;;;;;;;7.93;7.22;;;21.70;99.90;;;;;;5075420;28;20521;-29
2022/06/05 08:19:53;;;;;;;9.80;8.18;;;21.70;99.90;;;;;;5075244;28;20494;-30
2022/06/05 08:22:21;;;;;;;8.30;7.50;;;21.70;99.90;;;;;;5093427;28;20044;-30
2022/06/05 08:24:48;;;;;;;8.48;7.60;;;21.70;99.90;;;;;;5093344;28;20040;-31
2022/06/05 08:27:19;;;;;;;8.90;7.30;;;21.70;99.90;;;;;;5074676;28;20048;-29
2022/06/05 08:29:45;;;;;;;7.40;6.57;;;21.80;99.90;;;;;;5093053;28;20081;-30
2022/06/05 08:32:13;;;;;;;8.07;7.40;;;21.90;99.90;;;;;;5092701;28;20170;-31
2022/06/05 08:34:41;;;;;;;8.25;7.55;;;21.90;99.90;;;;;;5058534;28;20044;-30
2022/06/05 08:43:12;;;;;;;8.02;7.25;;;22.30;99.10;;;;;;5092953;28;20056;-29
2022/06/05 08:45:44;;;;;;;9.70;7.85;;;22.50;96.40;;;;;;5092455;28;20043;-29
2022/06/05 08:48:37;;;;;;;8.32;7.53;;;22.70;97.40;;;;;;5092717;28;20123;-30
2022/06/05 08:51:38;;;;;;;8.40;7.67;;;22.90;94.30;;;;;;5081927;28;20051;-30
2022/06/05 08:54:06;;;;;;;7.95;7.25;;;23.10;94.30;;;;;;5092691;28;20040;-30
2022/06/05 08:56:36;;;;;;;8.38;7.57;;;23.30;95.90;;;;;;5093135;28;20036;-30
2022/06/05 08:59:16;;;;;;;8.13;7.38;;;23.50;94.30;;;;;;5092658;28;20090;-29
2022/06/05 09:01:48;;;;;;;8.43;7.63;;;23.70;93.60;;;;;;5075119;28;20364;-29
2022/06/05 09:04:27;;;;;;;8.27;7.47;;;23.70;95.20;;;;;;5074189;28;20066;-29
2022/06/05 09:07:04;;;;;;;8.52;7.75;;;23.70;93.20;;;;;;5092595;28;20079;-29
2022/06/05 09:09:48;;;;;;;9.13;8.25;;;23.50;91.80;;;;;;5080538;28;20048;-29
2022/06/05 09:12:38;;;;;;;9.18;8.18;;;23.50;91.80;;;;;;5092163;28;20040;-31
2022/06/05 09:15:19;;;;;;;8.13;7.47;;;23.50;93.10;;;;;;5074047;28;20093;-29
2022/06/05 09:17:56;;;;;;;9.07;8.27;;;23.60;93.10;;;;;;5090809;28;20058;-29
2022/06/05 09:20:49;;;;;;;8.55;7.70;;;23.70;92.30;;;;;;5073977;28;20498;-29
2022/06/05 09:23:37;;;;;;;8.20;7.50;;;23.80;92.80;;;;;;5078859;28;20059;-30
2022/06/05 09:26:24;;;;;;;8.50;7.70;;;24.00;92.00;;;;;;5089410;28;20063;-29
2022/06/05 09:29:12;;;;;;;7.63;7.03;;;24.10;91.60;;;;;;5085322;28;20047;-29
2022/06/05 09:31:49;;;;;;;8.43;7.63;;;24.40;92.20;;;;;;5084542;28;20051;-29
2022/06/05 09:34:28;;;;;;;8.20;7.40;;;24.60;92.60;;;;;;5092323;28;20047;-29
2022/06/05 09:37:02;;;;;;;8.98;7.45;;;24.80;91.40;;;;;;5091965;28;20047;-30
2022/06/05 09:39:34;;;;;;;8.18;7.38;;;24.90;90.40;;;;;;5092208;28;20043;-29
2022/06/05 09:42:29;;;;;;;8.75;7.55;;;25.00;89.40;;;;;;5092283;28;20046;-29
2022/06/05 09:45:11;;;;;;;7.95;7.15;;;25.20;83.50;;;;;;5092347;28;20496;-30
2022/06/05 09:47:56;;;;;;;8.52;7.75;;;25.10;86.80;;;;;;5066257;28;20040;-29
2022/06/05 09:50:25;;;;;;;9.15;7.32;;;24.90;85.00;;;;;;5091712;28;20048;-29
2022/06/05 09:52:52;;;;;;;7.50;6.90;;;24.70;87.30;;;;;;5091829;28;20036;-29
2022/06/05 09:55:23;;;;;;;7.90;7.30;;;24.70;90.10;;;;;;5073848;28;20500;-29
2022/06/05 09:58:33;;;;;;;7.50;6.85;;;24.60;90.60;;;;;;5092085;28;20040;-29
2022/06/05 10:01:18;;;;;;;9.88;7.50;;;24.50;86.90;;;;;;5044859;28;20491;-29
2022/06/05 10:03:44;;;;;;;7.72;7.03;;;24.50;89.40;;;;;;5092209;28;20503;-29
2022/06/05 10:06:37;;;;;;;7.45;6.82;;;24.40;88.80;;;;;;5091898;28;20071;-30
2022/06/05 10:09:10;;;;;;;8.15;6.97;;;24.30;90.30;;;;;;5072165;28;20037;-30
2022/06/05 10:11:54;;;;;;;7.45;6.85;;;24.20;88.00;;;;;;5084755;28;20043;-29
2022/06/05 10:14:38;;;;;;;7.72;7.03;;;24.10;91.70;;;;;;5081651;28;20093;-30
2022/06/05 10:17:08;;;;;;;7.93;7.32;;;24.10;91.30;;;;;;5091477;28;20046;-30
2022/06/05 10:19:53;;;;;;;10.27;7.85;;;24.10;90.50;;;;;;5091722;28;20036;-29
2022/06/05 10:22:34;;;;;;;7.47;6.88;;;24.10;85.50;;;;;;5073978;28;20036;-30
2022/06/05 10:27:51;;;;;;;;;;;24.50;89.90;;;;;;5038182;28;20489;-29
2022/06/05 10:30:19;;;;;;;8.65;7.85;;;24.60;84.40;;;;;;5047215;28;19952;-30
2022/06/05 10:33:05;;;;;;;8.35;7.55;;;24.60;84.60;;;;;;5046259;28;20065;-29
2022/06/05 10:35:50;;;;;;;8.38;7.57;;;24.50;85.30;;;;;;5032476;28;20422;-29
2022/06/05 10:38:31;;;;;;;8.00;7.22;;;24.50;83.40;;;;;;5043537;28;20034;-29
2022/06/05 10:41:21;;;;;;;9.75;8.93;;;24.50;89.80;;;;;;5049619;28;20040;-29
2022/06/05 10:44:03;;;;;;;22.35;8.80;;;24.50;88.50;;;;;;5018093;28;20094;-29
2022/06/05 10:46:32;;;;;;;11.07;8.30;;;24.60;88.30;;;;;;5044590;28;20041;-30
2022/06/05 10:49:14;;;;;;;8.30;7.70;;;24.50;87.40;;;;;;5028164;28;20496;-29
2022/06/05 10:51:47;;;;;;;8.50;7.80;;;24.50;87.70;;;;;;5043221;28;20048;-29
2022/06/05 10:54:45;;;;;;;8.13;7.35;;;24.30;89.70;;;;;;5042109;28;20133;-29
2022/06/05 10:57:15;;;;;;;7.97;7.38;;;24.30;90.60;;;;;;5045756;28;20447;-29
2022/06/05 11:00:16;;;;;;;8.65;7.95;;;24.30;90.30;;;;;;5044023;28;20116;-28
2022/06/05 11:03:20;;;;;;;9.20;7.32;;;24.20;91.50;;;;;;5043099;28;20120;-29
2022/06/05 11:06:24;;;;;;;8.48;7.78;;;24.10;90.90;;;;;;5027661;28;20037;-29
2022/06/05 11:09:25;;;;;;;8.32;7.70;;;24.10;90.10;;;;;;5044450;28;20116;-29
2022/06/05 11:15:32;;;;;;;8.75;7.95;;;24.00;91.80;;;;;;5046139;28;20036;-29
2022/06/05 11:18:35;;;;;;;8.25;7.53;;;23.90;90.00;;;;;;5047594;28;20048;-29
2022/06/05 11:21:02;;;;;;;8.07;7.38;;;23.80;90.70;;;;;;5045127;28;20045;-29
2022/06/05 11:23:50;;;;;;;9.05;8.25;;;23.80;91.20;;;;;;5053147;28;20068;-29
2022/06/05 11:26:21;;;;;;;9.13;8.23;;;23.80;91.80;;;;;;5048603;28;20045;-29
2022/06/05 11:29:26;;;;;;;9.15;8.45;;;23.90;92.20;;;;;;5047683;28;20040;-29
2022/06/05 11:31:58;;;;;;;9.50;8.52;;;23.90;91.80;;;;;;5041485;28;20057;-30
2022/06/05 11:34:45;;;;;;;8.82;8.05;;;23.80;91.70;;;;;;5053104;28;20045;-30
2022/06/05 11:37:37;;;;;;;8.05;7.38;;;23.80;92.00;;;;;;5052943;28;20492;-30
2022/06/05 11:40:15;;;;;;;9.68;7.47;;;23.80;94.00;;;;;;5046894;28;20045;-30
2022/06/05 11:42:54;;;;;;;10.00;8.00;;;23.80;93.40;;;;;;5046636;28;20548;-30
2022/06/05 11:45:51;;;;;;;8.98;8.18;;;23.80;92.00;;;;;;5049948;28;20397;-30
2022/06/05 11:48:40;;;;;;;8.40;7.70;;;23.90;93.00;;;;;;5050969;28;20045;-30
2022/06/05 11:51:27;;;;;;;8.35;7.55;;;23.90;93.40;;;;;;5051936;28;20443;-29
2022/06/05 11:54:16;;;;;;;8.07;7.22;;;23.90;91.70;;;;;;5027299;28;20050;-30
2022/06/05 11:56:45;;;;;;;8.02;7.32;;;23.80;92.90;;;;;;5023732;28;20041;-30
2022/06/05 11:59:29;;;;;;;9.18;8.38;;;23.80;92.00;;;;;;5049696;28;20042;-30
2022/06/05 12:02:13;;;;;;;8.63;7.85;;;23.80;93.60;;;;;;5043594;28;20045;-30
2022/06/05 12:05:28;;;;;;;8.95;7.95;;;23.80;92.20;;;;;;5029109;28;20545;-30
2022/06/05 12:08:01;;;;;;;;;;;23.80;92.70;;;;;;5018329;28;20560;-30
2022/06/05 12:10:29;;;;;;;9.00;7.43;;;23.80;93.70;;;;;;5050789;28;19975;-30
2022/06/05 12:13:28;;;;;;;7.43;6.82;;;23.90;93.90;;;;;;5039500;28;20120;-27
2022/06/05 12:16:06;;;;;;;8.88;8.13;;;24.00;92.70;;;;;;5041912;28;20041;-27
2022/06/05 12:18:56;;;;;;;8.15;7.55;;;24.00;93.50;;;;;;5054182;28;20124;-27
2022/06/05 12:21:25;;;;;;;8.35;7.65;;;24.00;92.40;;;;;;5045240;28;20050;-27
2022/06/05 12:24:00;;;;;;;8.75;7.57;;;23.90;92.20;;;;;;5059020;28;20095;-27
2022/06/05 12:26:45;;;;;;;8.45;7.70;;;23.90;92.10;;;;;;5053221;28;20040;-27
2022/06/05 12:29:19;;;;;;;8.07;7.57;;;23.90;92.00;;;;;;5058840;28;20079;-28
2022/06/05 12:32:01;;;;;;;8.63;7.88;;;23.90;92.00;;;;;;5053007;28;20037;-27
2022/06/05 12:34:43;;;;;;;8.20;7.60;;;24.00;94.30;;;;;;5033918;28;20092;-27
2022/06/05 12:37:22;;;;;;;9.00;7.95;;;24.10;94.00;;;;;;5044026;28;20142;-27
2022/06/05 12:39:53;;;;;;;8.20;7.50;;;24.20;93.50;;;;;;5053530;28;20048;-27
2022/06/05 12:42:27;;;;;;;8.13;7.43;;;24.20;93.50;;;;;;5053213;28;20505;-28
2022/06/05 12:45:05;;;;;;;7.80;7.20;;;24.30;92.90;;;;;;5053207;28;20040;-27
2022/06/05 12:47:37;;;;;;;8.60;7.90;;;24.40;92.90;;;;;;5032815;28;20119;-27
2022/06/05 12:50:32;;;;;;;7.80;7.10;;;24.50;92.90;;;;;;5050248;28;20116;-26
2022/06/05 12:53:10;;;;;;;7.90;7.30;;;24.70;93.30;;;;;;5033932;28;20041;-27
2022/06/05 12:56:20;;;;;;;8.57;7.88;;;24.80;93.40;;;;;;5052200;28;20543;-27
2022/06/05 12:58:50;;;;;;;8.43;7.55;;;25.00;92.00;;;;;;5003603;28;20137;-26
2022/06/05 13:01:44;;;;;;;7.68;6.97;;;25.00;92.30;;;;;;5045609;28;20114;-27
2022/06/05 13:04:25;;;;;;;7.18;6.68;;;25.10;93.10;;;;;;5052265;28;20051;-27
2022/06/05 13:07:09;;;;;;;8.60;7.90;;;25.30;91.80;;;;;;5052011;28;20047;-30
2022/06/05 13:09:42;;;;;;;7.70;6.85;;;25.40;86.40;;;;;;5020879;28;20045;-29
2022/06/05 13:12:16;;;;;;;7.75;7.25;;;25.30;89.00;;;;;;5046744;28;20056;-30
2022/06/05 13:14:58;;;;;;;7.40;6.95;;;25.40;87.90;;;;;;5049179;28;20039;-30
2022/06/05 13:17:50;;;;;;;8.07;7.30;;;25.40;88.40;;;;;;5047029;28;20037;-31
2022/06/05 13:20:41;;;;;;;8.10;7.40;;;25.50;86.80;;;;;;5027571;28;20056;-30
2022/06/05 13:23:13;;;;;;;7.82;7.22;;;25.50;85.20;;;;;;5026999;28;20504;-30
2022/06/05 13:25:55;;;;;;;7.80;7.03;;;25.70;88.90;;;;;;5047696;28;20040;-30
2022/06/05 13:29:19;;;;;;;7.93;7.17;;;25.80;88.30;;;;;;5039378;28;20071;-30
2022/06/05 13:32:09;;;;;;;7.43;6.93;;;26.10;76.50;;;;;;4971761;28;20049;-31